Time;durP1;ratioP1;P1;durP2;ratioP2;P2;SDS_P1;SDS_P2;PMS_P1;PMS_P2;Temp;Humidity;BMP_temperature;BMP_pressure;BME280_temperature;BME280_humidity;BME280_pressure;Samples;Min_cycle;Max_cycle;Signal;HPM_P1;HPM_P2
2023/10/29 00:00:33;;;;;;;;;;;;;;;;;;5056815;28;19921;-64
2023/10/29 00:02:59;;;;;;;;;;;;;;;;;;5050596;28;19925;-64
2023/10/29 00:05:25;;;;;;;;;;;;;;;;;;5050570;28;20327;-64
2023/10/29 00:07:50;;;;;;;;;;;;;;;;;;5054031;28;19947;-64
2023/10/29 00:10:16;;;;;;;;;;;;;;;;;;5053643;28;19967;-64
2023/10/29 00:12:42;;;;;;;;;;;;;;;;;;5048519;28;20012;-63
2023/10/29 00:15:08;;;;;;;;;;;;;;;;;;5052837;28;20023;-64
2023/10/29 00:17:34;;;;;;;;;;;;;;;;;;5051945;28;20493;-63
2023/10/29 00:20:00;;;;;;;;;;;;;;;;;;5053257;28;19930;-63
2023/10/29 00:22:27;;;;;;;;;;;;;;;;;;5044674;28;19966;-64
2023/10/29 00:24:53;;;;;;;;;;;;;;;;;;5051412;28;19928;-64
2023/10/29 00:27:18;;;;;;;;;;;;;;;;;;5045197;28;19990;-63
2023/10/29 00:29:46;;;;;;;;;;;;;;;;;;5029037;28;20413;-64
2023/10/29 00:32:13;;;;;;;;;;;;;;;;;;5043478;28;20335;-63
2023/10/29 00:34:39;;;;;;;;;;;;;;;;;;5049278;28;19928;-64
2023/10/29 00:37:05;;;;;;;;;;;;;;;;;;5048883;28;19931;-64
2023/10/29 00:39:30;;;;;;;;;;;;;;;;;;5052030;28;19929;-64
2023/10/29 00:41:57;;;;;;;;;;;;;;;;;;5051540;28;19931;-64
2023/10/29 00:44:23;;;;;;;;;;;;;;;;;;5047379;28;19946;-63
2023/10/29 00:46:49;;;;;;;;;;;;;;;;;;5049965;28;19945;-63
2023/10/29 00:49:14;;;;;;;;;;;;;;;;;;5051250;28;20413;-64
2023/10/29 00:51:40;;;;;;;;;;;;;;;;;;5052000;28;19927;-63
2023/10/29 00:54:06;;;;;;;;;;;;;;;;;;5064487;28;19925;-63
2023/10/29 00:56:32;;;;;;;;;;;;;;;;;;5033794;28;20051;-63
2023/10/29 00:58:58;;;;;;;;;;;;;;;;;;5023918;28;20045;-63
2023/10/29 01:01:25;;;;;;;;;;;;;;;;;;5051352;28;20266;-63
2023/10/29 01:03:51;;;;;;;;;;;;;;;;;;5049021;28;20286;-63
2023/10/29 01:06:17;;;;;;;;;;;;;;;;;;5032359;28;19925;-63
2023/10/29 01:08:43;;;;;;;;;;;;;;;;;;5034259;28;19921;-64
2023/10/29 01:11:08;;;;;;;;;;;;;;;;;;5051822;28;19928;-64
2023/10/29 01:13:34;;;;;;;;;;;;;;;;;;5047379;28;19925;-63
2023/10/29 01:16:04;;;;;;;;;;;;;;;;;;5051412;28;19935;-63
2023/10/29 01:18:30;;;;;;;;;;;;;;;;;;5046315;28;20011;-63
2023/10/29 01:20:56;;;;;;;;;;;;;;;;;;5049260;28;20448;-64
2023/10/29 01:23:23;;;;;;;;;;;;;;;;;;5053611;28;19925;-63
2023/10/29 01:25:48;;;;;;;;;;;;;;;;;;5050906;28;20262;-63
2023/10/29 01:28:14;;;;;;;;;;;;;;;;;;5053021;28;19925;-64
2023/10/29 01:30:40;;;;;;;;;;;;;;;;;;5047723;28;19971;-64
2023/10/29 01:33:06;;;;;;;;;;;;;;;;;;5050781;28;20254;-63
2023/10/29 01:35:32;;;;;;;;;;;;;;;;;;5051664;28;19971;-63
2023/10/29 01:37:58;;;;;;;;;;;;;;;;;;5049765;28;19924;-63
2023/10/29 01:40:24;;;;;;;;;;;;;;;;;;5050519;28;19935;-63
2023/10/29 01:42:50;;;;;;;;;;;;;;;;;;5051248;28;19921;-63
2023/10/29 01:45:17;;;;;;;;;;;;;;;;;;5011414;28;20344;-64
2023/10/29 01:47:42;;;;;;;;;;;;;;;;;;5050072;28;19928;-63
2023/10/29 01:50:08;;;;;;;;;;;;;;;;;;5048342;28;19955;-64
2023/10/29 01:52:34;;;;;;;;;;;;;;;;;;5052460;28;20299;-64
2023/10/29 01:55:00;;;;;;;;;;;;;;;;;;5045958;28;20345;-64
2023/10/29 01:57:26;;;;;;;;;;;;;;;;;;5049508;28;19928;-63
2023/10/29 01:59:52;;;;;;;;;;;;;;;;;;5047439;28;19928;-63
2023/10/29 02:02:18;;;;;;;;;;;;;;;;;;5052253;28;20322;-62
2023/10/29 02:04:44;;;;;;;;;;;;;;;;;;5062363;28;19932;-62
2023/10/29 02:07:10;;;;;;;;;;;;;;;;;;5055698;28;19975;-63
2023/10/29 02:09:37;;;;;;;;;;;;;;;;;;5065765;28;20379;-63
2023/10/29 02:12:02;;;;;;;;;;;;;;;;;;5054397;28;20651;-63
2023/10/29 02:14:30;;;;;;;;;;;;;;;;;;5057602;28;19932;-62
2023/10/29 02:16:55;;;;;;;;;;;;;;;;;;5053462;28;19966;-63
2023/10/29 02:19:21;;;;;;;;;;;;;;;;;;5056096;28;19925;-63
2023/10/29 02:21:47;;;;;;;;;;;;;;;;;;5052693;28;20015;-63
2023/10/29 02:24:13;;;;;;;;;;;;;;;;;;5037184;28;19987;-63
2023/10/29 02:26:39;;;;;;;;;;;;;;;;;;5054847;28;19920;-63
2023/10/29 02:29:05;;;;;;;;;;;;;;;;;;5053030;28;19929;-63
2023/10/29 02:31:31;;;;;;;;;;;;;;;;;;5033839;28;19966;-63
2023/10/29 02:33:57;;;;;;;;;;;;;;;;;;5048898;28;20478;-63
2023/10/29 02:36:23;;;;;;;;;;;;;;;;;;5054001;28;19920;-63
2023/10/29 02:38:49;;;;;;;;;;;;;;;;;;5055082;28;19925;-63
2023/10/29 02:41:14;;;;;;;;;;;;;;;;;;5054031;28;20003;-63
2023/10/29 02:43:40;;;;;;;;;;;;;;;;;;5054666;28;19921;-63
2023/10/29 02:46:06;;;;;;;;;;;;;;;;;;5049174;28;20263;-64
2023/10/29 02:48:32;;;;;;;;;;;;;;;;;;5053636;28;19979;-63
2023/10/29 02:50:58;;;;;;;;;;;;;;;;;;5034220;28;19968;-63
2023/10/29 02:53:24;;;;;;;;;;;;;;;;;;5056551;28;19968;-64
2023/10/29 02:55:50;;;;;;;;;;;;;;;;;;5036931;28;19925;-63
2023/10/29 02:58:16;;;;;;;;;;;;;;;;;;5067418;28;19979;-63
2023/10/29 03:00:42;;;;;;;;;;;;;;;;;;5049949;28;19948;-64
2023/10/29 03:03:08;;;;;;;;;;;;;;;;;;5046081;28;19947;-62
2023/10/29 03:05:34;;;;;;;;;;;;;;;;;;5050126;28;19921;-62
2023/10/29 03:08:00;;;;;;;;;;;;;;;;;;5050128;28;19928;-62
2023/10/29 03:10:26;;;;;;;;;;;;;;;;;;5050119;28;19928;-62
2023/10/29 03:12:52;;;;;;;;;;;;;;;;;;5049572;28;19921;-62
2023/10/29 03:15:18;;;;;;;;;;;;;;;;;;5052933;28;19983;-63
2023/10/29 03:17:44;;;;;;;;;;;;;;;;;;5033648;28;19936;-63
2023/10/29 03:20:11;;;;;;;;;;;;;;;;;;5058694;28;19920;-63
2023/10/29 03:22:37;;;;;;;;;;;;;;;;;;5066465;28;19924;-62
2023/10/29 03:25:03;;;;;;;;;;;;;;;;;;5048042;28;20340;-63
2023/10/29 03:27:28;;;;;;;;;;;;;;;;;;5054672;28;19924;-63
2023/10/29 03:29:54;;;;;;;;;;;;;;;;;;5058925;28;19967;-63
2023/10/29 03:32:20;;;;;;;;;;;;;;;;;;5057618;28;20606;-63
2023/10/29 03:34:46;;;;;;;;;;;;;;;;;;5057196;28;19924;-62
2023/10/29 03:37:12;;;;;;;;;;;;;;;;;;5060621;28;19927;-63
2023/10/29 03:39:38;;;;;;;;;;;;;;;;;;5060786;28;19921;-63
2023/10/29 03:42:04;;;;;;;;;;;;;;;;;;5049352;28;19928;-63
2023/10/29 03:44:30;;;;;;;;;;;;;;;;;;5054290;28;20333;-64
2023/10/29 03:46:56;;;;;;;;;;;;;;;;;;5036491;28;19928;-63
2023/10/29 03:49:22;;;;;;;;;;;;;;;;;;5055170;28;19951;-63
2023/10/29 03:51:48;;;;;;;;;;;;;;;;;;5054147;28;19929;-63
2023/10/29 03:54:14;;;;;;;;;;;;;;;;;;5050517;28;19924;-62
2023/10/29 03:56:40;;;;;;;;;;;;;;;;;;5045584;28;19932;-63
2023/10/29 03:59:06;;;;;;;;;;;;;;;;;;5048709;28;20566;-64
2023/10/29 04:01:32;;;;;;;;;;;;;;;;;;5049545;28;19932;-63
2023/10/29 04:03:58;;;;;;;;;;;;;;;;;;5056808;28;19927;-63
2023/10/29 04:06:24;;;;;;;;;;;;;;;;;;5049386;28;19999;-63
2023/10/29 04:08:49;;;;;;;;;;;;;;;;;;5051887;28;20008;-63
2023/10/29 04:11:15;;;;;;;;;;;;;;;;;;5052091;28;20363;-63
2023/10/29 04:13:41;;;;;;;;;;;;;;;;;;5024894;28;19970;-64
2023/10/29 04:16:08;;;;;;;;;;;;;;;;;;5049083;28;20008;-63
2023/10/29 04:18:34;;;;;;;;;;;;;;;;;;5054238;28;19972;-63
2023/10/29 04:21:00;;;;;;;;;;;;;;;;;;5064897;28;19979;-63
2023/10/29 04:23:26;;;;;;;;;;;;;;;;;;5064044;28;19925;-64
2023/10/29 04:25:51;;;;;;;;;;;;;;;;;;5054111;28;19936;-63
2023/10/29 04:28:17;;;;;;;;;;;;;;;;;;5043602;28;19925;-63
2023/10/29 04:30:43;;;;;;;;;;;;;;;;;;5052744;28;19921;-63
2023/10/29 04:33:09;;;;;;;;;;;;;;;;;;5048502;28;19920;-64
2023/10/29 04:35:35;;;;;;;;;;;;;;;;;;5050660;28;19968;-64
2023/10/29 04:38:01;;;;;;;;;;;;;;;;;;5051971;28;19967;-63
2023/10/29 04:40:27;;;;;;;;;;;;;;;;;;5048777;28;20325;-64
2023/10/29 04:42:53;;;;;;;;;;;;;;;;;;5048763;28;19928;-63
2023/10/29 04:45:18;;;;;;;;;;;;;;;;;;5014904;28;19924;-64
2023/10/29 04:47:44;;;;;;;;;;;;;;;;;;5047140;28;19935;-63
2023/10/29 04:50:10;;;;;;;;;;;;;;;;;;5049462;28;19921;-63
2023/10/29 04:52:37;;;;;;;;;;;;;;;;;;5048196;28;20382;-62
2023/10/29 04:55:05;;;;;;;;;;;;;;;;;;5056907;28;19932;-62
2023/10/29 04:57:30;;;;;;;;;;;;;;;;;;5029337;28;19928;-63
2023/10/29 04:59:56;;;;;;;;;;;;;;;;;;5028928;28;20371;-63
2023/10/29 05:02:22;;;;;;;;;;;;;;;;;;5048957;28;19974;-62
2023/10/29 05:04:48;;;;;;;;;;;;;;;;;;5054984;28;20385;-62
2023/10/29 05:07:14;;;;;;;;;;;;;;;;;;5038801;28;19931;-63
2023/10/29 05:09:40;;;;;;;;;;;;;;;;;;5058022;28;19925;-63
2023/10/29 05:12:07;;;;;;;;;;;;;;;;;;5054754;28;21800;-62
2023/10/29 05:14:33;;;;;;;;;;;;;;;;;;5033329;28;19933;-62
2023/10/29 05:16:58;;;;;;;;;;;;;;;;;;5063631;28;19924;-62
2023/10/29 05:19:24;;;;;;;;;;;;;;;;;;5051468;28;19924;-62
2023/10/29 05:21:50;;;;;;;;;;;;;;;;;;5051522;28;19968;-62
2023/10/29 05:24:16;;;;;;;;;;;;;;;;;;5049840;28;19929;-63
2023/10/29 05:26:42;;;;;;;;;;;;;;;;;;5050181;28;20274;-63
2023/10/29 05:29:09;;;;;;;;;;;;;;;;;;5058588;28;19920;-63
2023/10/29 05:31:34;;;;;;;;;;;;;;;;;;5053674;28;19929;-63
2023/10/29 05:34:01;;;;;;;;;;;;;;;;;;5056177;28;19950;-63
2023/10/29 05:36:27;;;;;;;;;;;;;;;;;;5055663;28;19925;-63
2023/10/29 05:38:53;;;;;;;;;;;;;;;;;;5064165;28;19920;-63
2023/10/29 05:41:19;;;;;;;;;;;;;;;;;;5058033;28;19925;-63
2023/10/29 05:43:45;;;;;;;;;;;;;;;;;;5065963;28;19947;-63
2023/10/29 05:46:11;;;;;;;;;;;;;;;;;;5035137;28;19920;-63
2023/10/29 05:48:36;;;;;;;;;;;;;;;;;;5051025;28;19920;-63
2023/10/29 05:51:02;;;;;;;;;;;;;;;;;;5056536;28;20448;-63
2023/10/29 05:53:28;;;;;;;;;;;;;;;;;;5052182;28;19971;-63
2023/10/29 05:55:54;;;;;;;;;;;;;;;;;;5051450;28;20027;-63
2023/10/29 05:58:20;;;;;;;;;;;;;;;;;;5058140;28;19928;-63
2023/10/29 06:00:46;;;;;;;;;;;;;;;;;;5051710;28;19924;-63
2023/10/29 06:03:12;;;;;;;;;;;;;;;;;;5051785;28;19990;-63
2023/10/29 06:05:38;;;;;;;;;;;;;;;;;;5037894;28;19920;-63
2023/10/29 06:08:05;;;;;;;;;;;;;;;;;;5040649;28;19928;-63
2023/10/29 06:10:31;;;;;;;;;;;;;;;;;;5052539;28;20506;-62
2023/10/29 06:12:58;;;;;;;;;;;;;;;;;;5046709;28;19922;-62
2023/10/29 06:15:24;;;;;;;;;;;;;;;;;;5054481;28;19925;-63
2023/10/29 06:17:50;;;;;;;;;;;;;;;;;;5038015;28;20302;-63
2023/10/29 06:20:20;;;;;;;;;;;;;;;;;;5050404;28;20318;-63
2023/10/29 06:22:47;;;;;;;;;;;;;;;;;;5061800;28;20362;-63
2023/10/29 06:25:13;;;;;;;;;;;;;;;;;;5046493;28;19939;-63
2023/10/29 06:27:39;;;;;;;;;;;;;;;;;;5059918;28;19942;-63
2023/10/29 06:30:05;;;;;;;;;;;;;;;;;;5063348;28;19928;-64
2023/10/29 06:32:31;;;;;;;;;;;;;;;;;;5031910;28;20378;-63
2023/10/29 06:34:56;;;;;;;;;;;;;;;;;;5060791;28;19928;-63
2023/10/29 06:37:22;;;;;;;;;;;;;;;;;;5061444;28;19921;-64
2023/10/29 06:39:48;;;;;;;;;;;;;;;;;;5066715;28;19924;-63
2023/10/29 06:42:14;;;;;;;;;;;;;;;;;;5064654;28;19948;-63
2023/10/29 06:44:40;;;;;;;;;;;;;;;;;;5066454;28;19924;-64
2023/10/29 06:47:07;;;;;;;;;;;;;;;;;;5058971;28;19920;-63
2023/10/29 06:49:33;;;;;;;;;;;;;;;;;;5018062;28;19978;-63
2023/10/29 06:51:59;;;;;;;;;;;;;;;;;;5068692;28;19974;-63
2023/10/29 06:54:25;;;;;;;;;;;;;;;;;;5066122;28;19951;-63
2023/10/29 06:56:51;;;;;;;;;;;;;;;;;;5064192;28;19932;-63
2023/10/29 06:59:18;;;;;;;;;;;;;;;;;;5048365;28;20035;-63
2023/10/29 07:01:44;;;;;;;;;;;;;;;;;;5048950;28;20128;-62
2023/10/29 07:04:10;;;;;;;;;;;;;;;;;;5049819;28;20487;-64
2023/10/29 07:06:36;;;;;;;;;;;;;;;;;;5034830;28;19936;-64
2023/10/29 07:09:03;;;;;;;;;;;;;;;;;;5051423;22;19921;-63
2023/10/29 07:11:29;;;;;;;;;;;;;;;;;;5018800;28;19936;-63
2023/10/29 07:13:55;;;;;;;;;;;;;;;;;;5003141;28;19933;-64
2023/10/29 07:16:21;;;;;;;;;;;;;;;;;;5015708;28;19921;-64
2023/10/29 07:18:47;;;;;;;;;;;;;;;;;;5005192;28;19952;-64
2023/10/29 07:21:14;;;;;;;;;;;;;;;;;;5034188;28;20244;-64
2023/10/29 07:23:40;;;;;;;;;;;;;;;;;;5026945;28;19921;-64
2023/10/29 07:26:06;;;;;;;;;;;;;;;;;;5016899;28;19932;-64
2023/10/29 07:28:34;;;;;;;;;;;;;;;;;;5033874;28;19922;-64
2023/10/29 07:31:00;;;;;;;;;;;;;;;;;;5034030;28;20428;-63
2023/10/29 07:33:26;;;;;;;;;;;;;;;;;;5013183;28;19960;-63
2023/10/29 07:35:52;;;;;;;;;;;;;;;;;;5009416;28;19999;-63
2023/10/29 07:38:18;;;;;;;;;;;;;;;;;;5032379;28;20428;-63
2023/10/29 07:40:43;;;;;;;;;;;;;;;;;;5008850;28;19930;-63
2023/10/29 07:43:09;;;;;;;;;;;;;;;;;;5020377;28;19928;-64
2023/10/29 07:45:35;;;;;;;;;;;;;;;;;;5012498;28;19929;-64
2023/10/29 07:48:02;;;;;;;;;;;;;;;;;;5015406;28;19929;-64
2023/10/29 07:50:28;;;;;;;;;;;;;;;;;;4988321;28;19926;-64
2023/10/29 07:52:54;;;;;;;;;;;;;;;;;;5013531;28;19943;-64
2023/10/29 07:55:20;;;;;;;;;;;;;;;;;;4994159;28;19971;-63
2023/10/29 07:57:46;;;;;;;;;;;;;;;;;;5012952;28;20350;-63
2023/10/29 08:00:15;;;;;;;;;;;;;;;;;;4989853;28;20008;-63
2023/10/29 08:02:41;;;;;;;;;;;;;;;;;;5015835;28;19929;-65
2023/10/29 08:05:06;;;;;;;;;;;;;;;;;;5009464;28;20007;-65
2023/10/29 08:07:32;;;;;;;;;;;;;;;;;;4998426;28;19926;-64
2023/10/29 08:09:58;;;;;;;;;;;;;;;;;;5015817;28;20438;-64
2023/10/29 08:12:24;;;;;;;;;;;;;;;;;;5010721;28;19925;-65
2023/10/29 08:14:50;;;;;;;;;;;;;;;;;;5012555;28;19930;-65
2023/10/29 08:17:17;;;;;;;;;;;;;;;;;;5013241;28;20375;-65
2023/10/29 08:19:43;;;;;;;;;;;;;;;;;;5013422;28;20355;-64
2023/10/29 08:22:09;;;;;;;;;;;;;;;;;;5016810;28;19925;-64
2023/10/29 08:24:35;;;;;;;;;;;;;;;;;;5013830;28;19922;-64
2023/10/29 08:27:01;;;;;;;;;;;;;;;;;;5013933;28;19921;-64
2023/10/29 08:29:27;;;;;;;;;;;;;;;;;;5010261;28;19932;-64
2023/10/29 08:31:53;;;;;;;;;;;;;;;;;;5002669;28;20283;-64
2023/10/29 08:34:19;;;;;;;;;;;;;;;;;;5007820;28;19925;-64
2023/10/29 08:36:45;;;;;;;;;;;;;;;;;;5005929;28;19925;-62
2023/10/29 08:39:10;;;;;;;;;;;;;;;;;;5001996;28;19925;-63
2023/10/29 08:41:36;;;;;;;;;;;;;;;;;;5010679;28;20475;-64
2023/10/29 08:44:02;;;;;;;;;;;;;;;;;;5008203;28;19929;-64
2023/10/29 08:46:28;;;;;;;;;;;;;;;;;;5009735;28;19926;-64
2023/10/29 08:48:54;;;;;;;;;;;;;;;;;;5009329;28;19926;-64
2023/10/29 08:51:20;;;;;;;;;;;;;;;;;;5006492;28;19968;-64
2023/10/29 08:53:46;;;;;;;;;;;;;;;;;;5013825;28;19948;-64
2023/10/29 08:56:12;;;;;;;;;;;;;;;;;;5014180;28;19975;-64
2023/10/29 08:58:38;;;;;;;;;;;;;;;;;;5003027;28;19929;-64
2023/10/29 09:01:04;;;;;;;;;;;;;;;;;;5007034;28;19921;-64
2023/10/29 09:03:30;;;;;;;;;;;;;;;;;;5015214;28;19956;-64
2023/10/29 09:05:56;;;;;;;;;;;;;;;;;;5008660;28;19973;-64
2023/10/29 09:08:22;;;;;;;;;;;;;;;;;;5009238;28;19931;-64
2023/10/29 09:10:48;;;;;;;;;;;;;;;;;;4989981;28;20363;-64
2023/10/29 09:13:18;;;;;;;;;;;;;;;;;;5010562;28;19933;-64
2023/10/29 09:15:44;;;;;;;;;;;;;;;;;;5010995;28;19926;-64
2023/10/29 09:18:10;;;;;;;;;;;;;;;;;;5020386;28;20346;-64
2023/10/29 09:20:38;;;;;;;;;;;;;;;;;;5011039;28;19925;-64
2023/10/29 09:23:04;;;;;;;;;;;;;;;;;;5009410;28;21485;-64
2023/10/29 09:25:30;;;;;;;;;;;;;;;;;;5012788;28;20298;-64
2023/10/29 09:27:58;;;;;;;;;;;;;;;;;;5013446;28;19922;-64
2023/10/29 09:30:24;;;;;;;;;;;;;;;;;;5011008;28;20848;-64
2023/10/29 09:32:52;;;;;;;;;;;;;;;;;;5011120;28;19921;-63
2023/10/29 09:35:18;;;;;;;;;;;;;;;;;;5008303;28;19926;-63
2023/10/29 09:37:44;;;;;;;;;;;;;;;;;;5007423;28;19945;-63
2023/10/29 09:40:13;;;;;;;;;;;;;;;;;;4999312;28;19926;-63
2023/10/29 09:42:39;;;;;;;;;;;;;;;;;;5007958;28;19921;-63
2023/10/29 09:45:05;;;;;;;;;;;;;;;;;;5008289;28;20012;-63
2023/10/29 09:47:31;;;;;;;;;;;;;;;;;;5007075;28;20036;-63
2023/10/29 09:49:57;;;;;;;;;;;;;;;;;;5005224;28;19926;-63
2023/10/29 09:52:22;;;;;;;;;;;;;;;;;;5003904;28;19922;-63
2023/10/29 09:54:50;;;;;;;;;;;;;;;;;;5010226;28;20045;-63
2023/10/29 09:57:16;;;;;;;;;;;;;;;;;;5011996;28;19936;-63
2023/10/29 09:59:42;;;;;;;;;;;;;;;;;;5008954;28;20377;-62
2023/10/29 10:02:08;;;;;;;;;;;;;;;;;;5018419;28;19925;-63
2023/10/29 10:04:34;;;;;;;;;;;;;;;;;;5018526;28;19926;-62
2023/10/29 10:07:00;;;;;;;;;;;;;;;;;;5011644;28;19929;-63
2023/10/29 10:09:26;;;;;;;;;;;;;;;;;;5012837;28;19925;-62
2023/10/29 10:11:52;;;;;;;;;;;;;;;;;;5012373;28;20011;-62
2023/10/29 10:14:18;;;;;;;;;;;;;;;;;;5005940;28;20378;-63
2023/10/29 10:16:44;;;;;;;;;;;;;;;;;;5013455;28;19936;-63
2023/10/29 10:19:11;;;;;;;;;;;;;;;;;;5010976;28;19952;-63
2023/10/29 10:21:37;;;;;;;;;;;;;;;;;;5014482;28;19940;-63
2023/10/29 10:24:03;;;;;;;;;;;;;;;;;;5010740;28;19925;-63
2023/10/29 10:26:30;;;;;;;;;;;;;;;;;;5011877;28;19932;-63
2023/10/29 10:28:56;;;;;;;;;;;;;;;;;;5016875;28;19932;-63
2023/10/29 10:31:22;;;;;;;;;;;;;;;;;;5015258;28;19929;-64
2023/10/29 10:33:48;;;;;;;;;;;;;;;;;;5015165;28;20005;-63
2023/10/29 10:36:14;;;;;;;;;;;;;;;;;;5012920;28;19922;-63
2023/10/29 10:38:40;;;;;;;;;;;;;;;;;;5012680;28;19925;-63
2023/10/29 10:41:06;;;;;;;;;;;;;;;;;;5012801;28;20463;-62
2023/10/29 10:43:32;;;;;;;;;;;;;;;;;;5009093;28;19921;-62
2023/10/29 10:45:58;;;;;;;;;;;;;;;;;;5000375;28;19930;-63
2023/10/29 10:48:24;;;;;;;;;;;;;;;;;;5039835;28;19946;-63
2023/10/29 10:50:53;;;;;;;;;;;;;;;;;;5007448;28;20388;-62
2023/10/29 10:53:18;;;;;;;;;;;;;;;;;;5010004;28;19952;-63
2023/10/29 10:55:44;;;;;;;;;;;;;;;;;;5012460;28;20006;-63
2023/10/29 10:58:11;;;;;;;;;;;;;;;;;;4996311;28;20772;-63
2023/10/29 11:00:37;;;;;;;;;;;;;;;;;;5013421;28;19921;-63
2023/10/29 11:03:03;;;;;;;;;;;;;;;;;;5012926;28;19921;-63
2023/10/29 11:05:30;;;;;;;;;;;;;;;;;;5014532;28;19925;-64
2023/10/29 11:07:56;;;;;;;;;;;;;;;;;;5010123;28;21155;-63
2023/10/29 11:10:22;;;;;;;;;;;;;;;;;;5010138;28;19925;-63
2023/10/29 11:12:48;;;;;;;;;;;;;;;;;;5010635;28;19983;-64
2023/10/29 11:15:14;;;;;;;;;;;;;;;;;;5012917;28;19924;-64
2023/10/29 11:17:40;;;;;;;;;;;;;;;;;;5014313;28;19925;-64
2023/10/29 11:20:06;;;;;;;;;;;;;;;;;;5013060;28;20294;-64
2023/10/29 11:22:32;;;;;;;;;;;;;;;;;;5011303;28;19940;-64
2023/10/29 11:24:58;;;;;;;;;;;;;;;;;;5012508;28;19921;-63
2023/10/29 11:27:24;;;;;;;;;;;;;;;;;;5024649;28;19948;-64
2023/10/29 11:29:50;;;;;;;;;;;;;;;;;;5010026;28;19925;-64
2023/10/29 11:32:15;;;;;;;;;;;;;;;;;;5014589;28;19936;-64
2023/10/29 11:34:41;;;;;;;;;;;;;;;;;;5009487;28;20036;-64
2023/10/29 11:37:08;;;;;;;;;;;;;;;;;;5010893;28;19972;-64
2023/10/29 11:39:36;;;;;;;;;;;;;;;;;;5012210;28;19963;-63
2023/10/29 11:42:01;;;;;;;;;;;;;;;;;;5014382;28;19953;-64
2023/10/29 11:44:28;;;;;;;;;;;;;;;;;;5009520;28;19974;-64
2023/10/29 11:46:54;;;;;;;;;;;;;;;;;;5013365;28;19929;-64
2023/10/29 11:49:20;;;;;;;;;;;;;;;;;;5019511;28;19989;-64
2023/10/29 11:51:46;;;;;;;;;;;;;;;;;;5013574;28;20418;-63
2023/10/29 11:54:12;;;;;;;;;;;;;;;;;;5013736;28;19921;-63
2023/10/29 11:56:38;;;;;;;;;;;;;;;;;;5012797;28;20024;-63
2023/10/29 11:59:05;;;;;;;;;;;;;;;;;;5013635;28;19929;-64
2023/10/29 12:01:31;;;;;;;;;;;;;;;;;;5011569;28;19953;-63
2023/10/29 12:03:57;;;;;;;;;;;;;;;;;;5014366;28;19921;-63
2023/10/29 12:06:23;;;;;;;;;;;;;;;;;;5012055;28;20331;-63
2023/10/29 12:08:49;;;;;;;;;;;;;;;;;;5008913;28;19928;-63
2023/10/29 12:11:14;;;;;;;;;;;;;;;;;;5008903;28;19932;-63
2023/10/29 12:13:43;;;;;;;;;;;;;;;;;;5007633;28;20415;-63
2023/10/29 12:16:09;;;;;;;;;;;;;;;;;;5011357;28;19941;-63
2023/10/29 12:18:36;;;;;;;;;;;;;;;;;;5015152;28;19929;-63
2023/10/29 12:21:02;;;;;;;;;;;;;;;;;;5010840;28;19929;-63
2023/10/29 12:23:28;;;;;;;;;;;;;;;;;;5009944;28;20295;-63
2023/10/29 12:25:55;;;;;;;;;;;;;;;;;;5011838;28;19929;-63
2023/10/29 12:28:21;;;;;;;;;;;;;;;;;;5009750;28;19932;-63
2023/10/29 12:30:48;;;;;;;;;;;;;;;;;;5009883;28;19922;-63
2023/10/29 12:33:14;;;;;;;;;;;;;;;;;;5008755;28;19976;-63
2023/10/29 12:35:40;;;;;;;;;;;;;;;;;;5031352;28;19933;-63
2023/10/29 12:38:06;;;;;;;;;;;;;;;;;;5013880;28;19980;-62
2023/10/29 12:40:32;;;;;;;;;;;;;;;;;;5008398;28;19921;-63
2023/10/29 12:42:57;;;;;;;;;;;;;;;;;;5004299;28;20302;-63
2023/10/29 12:45:24;;;;;;;;;;;;;;;;;;5009044;28;19932;-63
2023/10/29 12:47:50;;;;;;;;;;;;;;;;;;5002928;28;20279;-63
2023/10/29 12:50:16;;;;;;;;;;;;;;;;;;5013584;28;20048;-63
2023/10/29 12:52:42;;;;;;;;;;;;;;;;;;5001002;28;19929;-63
2023/10/29 12:55:08;;;;;;;;;;;;;;;;;;5006350;28;19987;-63
2023/10/29 12:57:34;;;;;;;;;;;;;;;;;;5009819;28;19921;-64
2023/10/29 13:00:00;;;;;;;;;;;;;;;;;;5009021;28;19951;-63
2023/10/29 13:02:26;;;;;;;;;;;;;;;;;;5010368;28;19952;-64
2023/10/29 13:04:52;;;;;;;;;;;;;;;;;;5014145;28;19921;-64
2023/10/29 13:07:19;;;;;;;;;;;;;;;;;;5011577;28;19952;-63
2023/10/29 13:09:45;;;;;;;;;;;;;;;;;;5010035;28;20020;-63
2023/10/29 13:12:11;;;;;;;;;;;;;;;;;;5013858;28;20322;-63
2023/10/29 13:14:37;;;;;;;;;;;;;;;;;;5009373;28;19971;-63
2023/10/29 13:17:03;;;;;;;;;;;;;;;;;;5004916;28;19925;-63
2023/10/29 13:19:29;;;;;;;;;;;;;;;;;;5017060;28;19925;-63
2023/10/29 13:21:55;;;;;;;;;;;;;;;;;;5019143;28;19925;-62
2023/10/29 13:24:21;;;;;;;;;;;;;;;;;;5011518;28;19926;-62
2023/10/29 13:26:47;;;;;;;;;;;;;;;;;;5006608;28;19922;-62
2023/10/29 13:29:13;;;;;;;;;;;;;;;;;;5011408;28;19925;-63
2023/10/29 13:31:39;;;;;;;;;;;;;;;;;;5013037;28;20271;-62
2023/10/29 13:34:11;;;;;;;;;;;;;;;;;;5011807;28;19925;-62
2023/10/29 13:36:39;;;;;;;;;;;;;;;;;;5013054;28;19929;-62
2023/10/29 13:39:05;;;;;;;;;;;;;;;;;;5010552;28;20372;-62
2023/10/29 13:41:32;;;;;;;;;;;;;;;;;;5008966;28;19926;-62
2023/10/29 13:43:58;;;;;;;;;;;;;;;;;;5011770;28;19953;-63
2023/10/29 13:46:25;;;;;;;;;;;;;;;;;;5010076;28;20008;-63
2023/10/29 13:48:53;;;;;;;;;;;;;;;;;;5008586;28;20537;-63
2023/10/29 13:51:18;;;;;;;;;;;;;;;;;;5008276;28;20004;-63
2023/10/29 13:53:44;;;;;;;;;;;;;;;;;;5018384;28;20008;-63
2023/10/29 13:56:10;;;;;;;;;;;;;;;;;;5003920;28;20355;-63
2023/10/29 13:58:36;;;;;;;;;;;;;;;;;;5013332;28;19925;-63
2023/10/29 14:01:02;;;;;;;;;;;;;;;;;;5013432;28;20050;-63
2023/10/29 14:03:28;;;;;;;;;;;;;;;;;;5021225;28;19929;-63
2023/10/29 14:05:54;;;;;;;;;;;;;;;;;;5018851;28;19929;-63
2023/10/29 14:08:20;;;;;;;;;;;;;;;;;;5017605;28;20377;-63
2023/10/29 14:10:46;;;;;;;;;;;;;;;;;;5001204;28;20012;-63
2023/10/29 14:13:12;;;;;;;;;;;;;;;;;;5007241;28;19921;-63
2023/10/29 14:15:38;;;;;;;;;;;;;;;;;;5002486;28;19926;-63
2023/10/29 14:18:04;;;;;;;;;;;;;;;;;;4984230;28;19984;-64
2023/10/29 14:20:29;;;;;;;;;;;;;;;;;;4978139;28;20797;-64
2023/10/29 14:22:55;;;;;;;;;;;;;;;;;;4997452;28;19934;-63
2023/10/29 14:25:21;;;;;;;;;;;;;;;;;;5003938;28;19949;-63
2023/10/29 14:27:47;;;;;;;;;;;;;;;;;;4993784;28;20369;-63
2023/10/29 14:30:13;;;;;;;;;;;;;;;;;;4981643;28;19961;-62
2023/10/29 14:32:39;;;;;;;;;;;;;;;;;;4988048;28;19922;-63
2023/10/29 14:35:05;;;;;;;;;;;;;;;;;;4996374;28;20345;-63
2023/10/29 14:37:32;;;;;;;;;;;;;;;;;;5008402;28;19938;-62
2023/10/29 14:39:58;;;;;;;;;;;;;;;;;;4978329;28;19922;-63
2023/10/29 14:42:25;;;;;;;;;;;;;;;;;;4998154;28;19922;-63
2023/10/29 14:44:51;;;;;;;;;;;;;;;;;;4999424;28;20387;-63
2023/10/29 14:47:17;;;;;;;;;;;;;;;;;;5002243;28;19922;-63
2023/10/29 14:49:43;;;;;;;;;;;;;;;;;;4962846;28;19922;-63
2023/10/29 14:52:09;;;;;;;;;;;;;;;;;;4998867;28;19971;-63
2023/10/29 14:54:34;;;;;;;;;;;;;;;;;;4995379;28;19925;-63
2023/10/29 14:57:00;;;;;;;;;;;;;;;;;;4983820;28;20388;-62
2023/10/29 14:59:27;;;;;;;;;;;;;;;;;;4994495;28;20012;-63
2023/10/29 15:01:57;;;;;;;;;;;;;;;;;;4992938;28;19933;-63
2023/10/29 15:04:24;;;;;;;;;;;;;;;;;;4999562;28;19956;-63
2023/10/29 15:06:50;;;;;;;;;;;;;;;;;;4991115;28;20365;-62
2023/10/29 15:09:17;;;;;;;;;;;;;;;;;;4965949;28;19929;-63
2023/10/29 15:11:43;;;;;;;;;;;;;;;;;;5007222;28;19921;-63
2023/10/29 15:14:10;;;;;;;;;;;;;;;;;;5013072;28;19932;-63
2023/10/29 15:16:36;;;;;;;;;;;;;;;;;;5011975;28;19925;-62
2023/10/29 15:19:02;;;;;;;;;;;;;;;;;;5008257;28;19928;-63
2023/10/29 15:21:28;;;;;;;;;;;;;;;;;;5009165;28;19925;-63
2023/10/29 15:23:54;;;;;;;;;;;;;;;;;;5014285;28;19925;-64
2023/10/29 15:26:24;;;;;;;;;;;;;;;;;;5014848;28;20368;-63
2023/10/29 15:28:50;;;;;;;;;;;;;;;;;;5010735;28;19925;-63
2023/10/29 15:31:16;;;;;;;;;;;;;;;;;;5018501;28;19932;-62
2023/10/29 15:33:42;;;;;;;;;;;;;;;;;;5007451;28;19944;-63
2023/10/29 15:36:11;;;;;;;;;;;;;;;;;;5012522;28;19949;-64
2023/10/29 15:38:37;;;;;;;;;;;;;;;;;;5012375;28;20315;-64
2023/10/29 15:41:03;;;;;;;;;;;;;;;;;;5017861;28;19968;-64
2023/10/29 15:43:29;;;;;;;;;;;;;;;;;;5010577;28;20278;-64
2023/10/29 15:45:55;;;;;;;;;;;;;;;;;;5013976;28;19925;-64
2023/10/29 15:48:21;;;;;;;;;;;;;;;;;;5008970;28;19937;-64
2023/10/29 15:50:47;;;;;;;;;;;;;;;;;;5014847;28;19925;-63
2023/10/29 15:53:13;;;;;;;;;;;;;;;;;;5012642;28;20295;-64
2023/10/29 15:55:38;;;;;;;;;;;;;;;;;;5009221;28;19936;-64
2023/10/29 15:58:04;;;;;;;;;;;;;;;;;;5011794;28;19929;-64
2023/10/29 16:00:30;;;;;;;;;;;;;;;;;;5010868;28;20013;-64
2023/10/29 16:02:56;;;;;;;;;;;;;;;;;;5014253;28;19972;-64
2023/10/29 16:05:22;;;;;;;;;;;;;;;;;;5011904;28;19947;-64
2023/10/29 16:07:48;;;;;;;;;;;;;;;;;;5014387;28;19925;-64
2023/10/29 16:10:14;;;;;;;;;;;;;;;;;;5009393;28;19930;-64
2023/10/29 16:12:40;;;;;;;;;;;;;;;;;;5005672;28;19933;-63
2023/10/29 16:15:07;;;;;;;;;;;;;;;;;;5012137;28;19955;-64
2023/10/29 16:17:33;;;;;;;;;;;;;;;;;;5015157;28;19940;-62
2023/10/29 16:19:59;;;;;;;;;;;;;;;;;;5006293;28;20339;-63
2023/10/29 16:22:25;;;;;;;;;;;;;;;;;;5009808;28;19929;-62
2023/10/29 16:24:51;;;;;;;;;;;;;;;;;;5006982;28;19921;-63
2023/10/29 16:27:17;;;;;;;;;;;;;;;;;;5007832;28;19921;-63
2023/10/29 16:29:43;;;;;;;;;;;;;;;;;;5006275;28;19929;-63
2023/10/29 16:32:09;;;;;;;;;;;;;;;;;;5011251;28;20357;-63
2023/10/29 16:34:35;;;;;;;;;;;;;;;;;;5015829;28;19922;-63
2023/10/29 16:37:01;;;;;;;;;;;;;;;;;;5010323;28;19999;-63